sensor_id;sensor_type;location;lat;lon;timestamp;temperature;humidity
6106;DHT22;3083;51.508;7.966;2023-06-10T00:00:23;16.40;99.90
6106;DHT22;3083;51.508;7.966;2023-06-10T00:02:49;16.30;99.90
6106;DHT22;3083;51.508;7.966;2023-06-10T00:05:16;16.30;99.90
6106;DHT22;3083;51.508;7.966;2023-06-10T00:07:46;16.30;99.90
6106;DHT22;3083;51.508;7.966;2023-06-10T00:10:13;16.30;99.90
6106;DHT22;3083;51.508;7.966;2023-06-10T00:12:41;16.20;99.90
6106;DHT22;3083;51.508;7.966;2023-06-10T00:15:09;16.10;99.90
6106;DHT22;3083;51.508;7.966;2023-06-10T00:17:38;16.10;99.90
6106;DHT22;3083;51.508;7.966;2023-06-10T00:20:07;16.00;99.90
6106;DHT22;3083;51.508;7.966;2023-06-10T00:22:36;16.00;99.90
6106;DHT22;3083;51.508;7.966;2023-06-10T00:25:04;16.00;99.90
6106;DHT22;3083;51.508;7.966;2023-06-10T00:27:31;16.00;99.90
6106;DHT22;3083;51.508;7.966;2023-06-10T00:30:01;16.00;99.90
6106;DHT22;3083;51.508;7.966;2023-06-10T00:32:29;16.00;99.90
6106;DHT22;3083;51.508;7.966;2023-06-10T00:34:57;15.90;99.90
6106;DHT22;3083;51.508;7.966;2023-06-10T00:37:24;15.90;99.90
6106;DHT22;3083;51.508;7.966;2023-06-10T00:39:51;15.80;99.90
6106;DHT22;3083;51.508;7.966;2023-06-10T00:42:19;15.80;99.90
6106;DHT22;3083;51.508;7.966;2023-06-10T00:44:46;15.70;99.90
6106;DHT22;3083;51.508;7.966;2023-06-10T00:47:14;15.70;99.90
6106;DHT22;3083;51.508;7.966;2023-06-10T00:49:40;15.60;99.90
6106;DHT22;3083;51.508;7.966;2023-06-10T00:52:09;15.60;99.90
6106;DHT22;3083;51.508;7.966;2023-06-10T00:54:37;15.60;99.90
6106;DHT22;3083;51.508;7.966;2023-06-10T00:57:04;15.70;99.90
6106;DHT22;3083;51.508;7.966;2023-06-10T00:59:32;15.70;99.90
6106;DHT22;3083;51.508;7.966;2023-06-10T01:01:59;15.60;99.90
6106;DHT22;3083;51.508;7.966;2023-06-10T01:04:27;15.60;99.90
6106;DHT22;3083;51.508;7.966;2023-06-10T01:07:02;15.60;99.90
6106;DHT22;3083;51.508;7.966;2023-06-10T01:09:37;15.60;99.90
6106;DHT22;3083;51.508;7.966;2023-06-10T01:12:09;15.50;99.90
6106;DHT22;3083;51.508;7.966;2023-06-10T01:14:37;15.50;99.90
6106;DHT22;3083;51.508;7.966;2023-06-10T01:17:07;15.40;99.90
6106;DHT22;3083;51.508;7.966;2023-06-10T01:19:35;15.50;99.90
6106;DHT22;3083;51.508;7.966;2023-06-10T01:22:04;15.40;99.90
6106;DHT22;3083;51.508;7.966;2023-06-10T01:24:31;15.40;99.90
6106;DHT22;3083;51.508;7.966;2023-06-10T01:27:01;15.40;99.90
6106;DHT22;3083;51.508;7.966;2023-06-10T01:29:35;15.30;99.90
6106;DHT22;3083;51.508;7.966;2023-06-10T01:32:08;15.30;99.90
6106;DHT22;3083;51.508;7.966;2023-06-10T01:34:39;15.30;99.90
6106;DHT22;3083;51.508;7.966;2023-06-10T01:37:09;15.20;99.90
6106;DHT22;3083;51.508;7.966;2023-06-10T01:39:38;15.30;99.90
6106;DHT22;3083;51.508;7.966;2023-06-10T01:42:06;15.20;99.90
6106;DHT22;3083;51.508;7.966;2023-06-10T01:44:33;15.30;99.90
6106;DHT22;3083;51.508;7.966;2023-06-10T01:46:59;15.30;99.90
6106;DHT22;3083;51.508;7.966;2023-06-10T01:49:26;15.30;99.90
6106;DHT22;3083;51.508;7.966;2023-06-10T01:51:54;15.30;99.90
6106;DHT22;3083;51.508;7.966;2023-06-10T01:54:22;15.30;99.90
6106;DHT22;3083;51.508;7.966;2023-06-10T01:56:49;15.20;99.90
6106;DHT22;3083;51.508;7.966;2023-06-10T01:59:16;15.10;99.90
6106;DHT22;3083;51.508;7.966;2023-06-10T02:01:42;15.10;99.90
6106;DHT22;3083;51.508;7.966;2023-06-10T02:04:09;15.10;99.90
6106;DHT22;3083;51.508;7.966;2023-06-10T02:06:36;15.10;99.90
6106;DHT22;3083;51.508;7.966;2023-06-10T02:09:03;15.00;99.90
6106;DHT22;3083;51.508;7.966;2023-06-10T02:11:32;15.00;99.90
6106;DHT22;3083;51.508;7.966;2023-06-10T02:13:58;14.90;99.90
6106;DHT22;3083;51.508;7.966;2023-06-10T02:16:25;14.90;99.90
6106;DHT22;3083;51.508;7.966;2023-06-10T02:18:52;14.90;99.90
6106;DHT22;3083;51.508;7.966;2023-06-10T02:21:20;14.90;99.90
6106;DHT22;3083;51.508;7.966;2023-06-10T02:23:47;15.00;99.90
6106;DHT22;3083;51.508;7.966;2023-06-10T02:26:13;15.00;99.90
6106;DHT22;3083;51.508;7.966;2023-06-10T02:28:43;15.00;99.90
6106;DHT22;3083;51.508;7.966;2023-06-10T02:31:10;15.00;99.90
6106;DHT22;3083;51.508;7.966;2023-06-10T02:33:37;15.10;99.90
6106;DHT22;3083;51.508;7.966;2023-06-10T02:36:05;15.10;99.90
6106;DHT22;3083;51.508;7.966;2023-06-10T02:38:32;15.00;99.90
6106;DHT22;3083;51.508;7.966;2023-06-10T02:40:59;14.90;99.90
6106;DHT22;3083;51.508;7.966;2023-06-10T02:43:26;14.80;99.90
6106;DHT22;3083;51.508;7.966;2023-06-10T02:45:54;14.80;99.90
6106;DHT22;3083;51.508;7.966;2023-06-10T02:48:21;14.70;99.90
6106;DHT22;3083;51.508;7.966;2023-06-10T02:50:47;14.60;99.90
6106;DHT22;3083;51.508;7.966;2023-06-10T02:53:14;14.60;99.90
6106;DHT22;3083;51.508;7.966;2023-06-10T02:55:41;14.60;99.90
6106;DHT22;3083;51.508;7.966;2023-06-10T02:58:08;14.70;99.90
6106;DHT22;3083;51.508;7.966;2023-06-10T03:00:35;14.70;99.90
6106;DHT22;3083;51.508;7.966;2023-06-10T03:03:03;14.60;99.90
6106;DHT22;3083;51.508;7.966;2023-06-10T03:05:30;14.60;99.90
6106;DHT22;3083;51.508;7.966;2023-06-10T03:07:57;14.50;99.90
6106;DHT22;3083;51.508;7.966;2023-06-10T03:10:24;14.40;99.90
6106;DHT22;3083;51.508;7.966;2023-06-10T03:12:51;14.50;99.90
6106;DHT22;3083;51.508;7.966;2023-06-10T03:15:18;14.50;99.90
6106;DHT22;3083;51.508;7.966;2023-06-10T03:17:46;14.50;99.90
6106;DHT22;3083;51.508;7.966;2023-06-10T03:20:14;14.50;99.90
6106;DHT22;3083;51.508;7.966;2023-06-10T03:22:42;14.50;99.90
6106;DHT22;3083;51.508;7.966;2023-06-10T03:25:09;14.50;99.90
6106;DHT22;3083;51.508;7.966;2023-06-10T03:27:39;14.50;99.90
6106;DHT22;3083;51.508;7.966;2023-06-10T03:30:07;14.60;99.90
6106;DHT22;3083;51.508;7.966;2023-06-10T03:32:34;14.60;99.90
6106;DHT22;3083;51.508;7.966;2023-06-10T03:35:01;14.60;99.90
6106;DHT22;3083;51.508;7.966;2023-06-10T03:37:29;14.60;99.90
6106;DHT22;3083;51.508;7.966;2023-06-10T03:39:56;14.60;99.90
6106;DHT22;3083;51.508;7.966;2023-06-10T03:42:23;14.60;99.90
6106;DHT22;3083;51.508;7.966;2023-06-10T03:44:49;14.50;99.90
6106;DHT22;3083;51.508;7.966;2023-06-10T03:47:16;14.40;99.90
6106;DHT22;3083;51.508;7.966;2023-06-10T03:49:43;14.40;99.90
6106;DHT22;3083;51.508;7.966;2023-06-10T03:52:10;14.30;99.90
6106;DHT22;3083;51.508;7.966;2023-06-10T03:54:38;14.30;99.90
6106;DHT22;3083;51.508;7.966;2023-06-10T03:57:05;14.40;99.90
6106;DHT22;3083;51.508;7.966;2023-06-10T03:59:32;14.40;99.90
6106;DHT22;3083;51.508;7.966;2023-06-10T04:01:59;14.50;99.90
6106;DHT22;3083;51.508;7.966;2023-06-10T04:04:26;14.60;99.90
6106;DHT22;3083;51.508;7.966;2023-06-10T04:06:53;14.60;99.90
6106;DHT22;3083;51.508;7.966;2023-06-10T04:09:20;14.80;99.90
6106;DHT22;3083;51.508;7.966;2023-06-10T04:11:48;15.00;99.90
6106;DHT22;3083;51.508;7.966;2023-06-10T04:14:14;15.10;99.90
6106;DHT22;3083;51.508;7.966;2023-06-10T04:16:41;15.20;99.90
6106;DHT22;3083;51.508;7.966;2023-06-10T04:19:08;15.20;99.90
6106;DHT22;3083;51.508;7.966;2023-06-10T04:21:36;15.30;99.90
6106;DHT22;3083;51.508;7.966;2023-06-10T04:24:03;15.40;99.90
6106;DHT22;3083;51.508;7.966;2023-06-10T04:26:30;15.40;99.90
6106;DHT22;3083;51.508;7.966;2023-06-10T04:28:58;15.40;99.90
6106;DHT22;3083;51.508;7.966;2023-06-10T04:31:25;15.50;99.90
6106;DHT22;3083;51.508;7.966;2023-06-10T04:33:52;15.60;99.90
6106;DHT22;3083;51.508;7.966;2023-06-10T04:36:19;15.60;99.90
6106;DHT22;3083;51.508;7.966;2023-06-10T04:38:45;15.70;99.90
6106;DHT22;3083;51.508;7.966;2023-06-10T04:41:12;15.80;99.90
6106;DHT22;3083;51.508;7.966;2023-06-10T04:43:39;15.80;99.90
6106;DHT22;3083;51.508;7.966;2023-06-10T04:46:08;15.90;99.90
6106;DHT22;3083;51.508;7.966;2023-06-10T04:48:35;16.00;99.90
6106;DHT22;3083;51.508;7.966;2023-06-10T04:51:02;16.00;99.90
6106;DHT22;3083;51.508;7.966;2023-06-10T04:53:30;16.00;99.90
6106;DHT22;3083;51.508;7.966;2023-06-10T04:55:57;16.10;99.90
6106;DHT22;3083;51.508;7.966;2023-06-10T04:58:24;16.20;99.90
6106;DHT22;3083;51.508;7.966;2023-06-10T05:00:51;16.20;99.90
6106;DHT22;3083;51.508;7.966;2023-06-10T05:03:19;16.30;99.90
6106;DHT22;3083;51.508;7.966;2023-06-10T05:05:46;16.40;99.90
6106;DHT22;3083;51.508;7.966;2023-06-10T05:08:13;16.50;99.90
6106;DHT22;3083;51.508;7.966;2023-06-10T05:10:40;16.60;99.90
6106;DHT22;3083;51.508;7.966;2023-06-10T05:13:07;16.60;99.90
6106;DHT22;3083;51.508;7.966;2023-06-10T05:15:34;16.70;99.90
6106;DHT22;3083;51.508;7.966;2023-06-10T05:18:00;16.90;99.90
6106;DHT22;3083;51.508;7.966;2023-06-10T05:20:30;17.00;99.90
6106;DHT22;3083;51.508;7.966;2023-06-10T05:22:57;17.10;99.90
6106;DHT22;3083;51.508;7.966;2023-06-10T05:25:26;17.20;99.90
6106;DHT22;3083;51.508;7.966;2023-06-10T05:27:53;17.30;99.90
6106;DHT22;3083;51.508;7.966;2023-06-10T05:30:20;17.50;99.90
6106;DHT22;3083;51.508;7.966;2023-06-10T05:32:47;17.60;99.90
6106;DHT22;3083;51.508;7.966;2023-06-10T05:35:14;17.70;99.90
6106;DHT22;3083;51.508;7.966;2023-06-10T05:37:42;17.80;99.90
6106;DHT22;3083;51.508;7.966;2023-06-10T05:40:10;18.00;99.90
6106;DHT22;3083;51.508;7.966;2023-06-10T05:42:37;18.10;99.90
6106;DHT22;3083;51.508;7.966;2023-06-10T05:45:06;18.20;99.90
6106;DHT22;3083;51.508;7.966;2023-06-10T05:47:33;18.50;99.90
6106;DHT22;3083;51.508;7.966;2023-06-10T05:49:59;18.80;99.90
6106;DHT22;3083;51.508;7.966;2023-06-10T05:52:26;19.10;99.90
6106;DHT22;3083;51.508;7.966;2023-06-10T05:54:54;19.40;99.90
6106;DHT22;3083;51.508;7.966;2023-06-10T05:57:22;19.80;99.90
6106;DHT22;3083;51.508;7.966;2023-06-10T05:59:48;20.20;99.90
6106;DHT22;3083;51.508;7.966;2023-06-10T06:02:15;20.60;99.90
6106;DHT22;3083;51.508;7.966;2023-06-10T06:04:42;20.90;99.90
6106;DHT22;3083;51.508;7.966;2023-06-10T06:07:09;21.30;99.90
6106;DHT22;3083;51.508;7.966;2023-06-10T06:09:36;21.70;99.90
6106;DHT22;3083;51.508;7.966;2023-06-10T06:12:05;22.10;99.90
6106;DHT22;3083;51.508;7.966;2023-06-10T06:14:36;22.40;99.90
6106;DHT22;3083;51.508;7.966;2023-06-10T06:17:03;22.70;99.90
6106;DHT22;3083;51.508;7.966;2023-06-10T06:19:30;23.00;99.90
6106;DHT22;3083;51.508;7.966;2023-06-10T06:21:57;23.30;99.90
6106;DHT22;3083;51.508;7.966;2023-06-10T06:24:24;23.50;99.90
6106;DHT22;3083;51.508;7.966;2023-06-10T06:26:51;23.70;99.90
6106;DHT22;3083;51.508;7.966;2023-06-10T06:29:19;23.90;99.90
6106;DHT22;3083;51.508;7.966;2023-06-10T06:31:46;24.10;99.90
6106;DHT22;3083;51.508;7.966;2023-06-10T06:34:13;24.30;99.90
6106;DHT22;3083;51.508;7.966;2023-06-10T06:36:40;24.50;99.90
6106;DHT22;3083;51.508;7.966;2023-06-10T06:39:06;24.70;99.90
6106;DHT22;3083;51.508;7.966;2023-06-10T06:41:33;24.90;99.90
6106;DHT22;3083;51.508;7.966;2023-06-10T06:44:00;25.00;99.90
6106;DHT22;3083;51.508;7.966;2023-06-10T06:46:29;25.10;99.90
6106;DHT22;3083;51.508;7.966;2023-06-10T06:48:56;25.20;99.90
6106;DHT22;3083;51.508;7.966;2023-06-10T06:51:23;25.20;99.90
6106;DHT22;3083;51.508;7.966;2023-06-10T06:53:50;25.40;99.90
6106;DHT22;3083;51.508;7.966;2023-06-10T06:56:19;25.60;99.90
6106;DHT22;3083;51.508;7.966;2023-06-10T06:58:46;25.70;99.90
6106;DHT22;3083;51.508;7.966;2023-06-10T07:01:13;25.90;99.90
6106;DHT22;3083;51.508;7.966;2023-06-10T07:03:41;26.00;99.90
6106;DHT22;3083;51.508;7.966;2023-06-10T07:06:08;26.40;99.90
6106;DHT22;3083;51.508;7.966;2023-06-10T07:08:35;26.50;99.90
6106;DHT22;3083;51.508;7.966;2023-06-10T07:11:02;26.50;99.90
6106;DHT22;3083;51.508;7.966;2023-06-10T07:13:29;26.60;99.90
6106;DHT22;3083;51.508;7.966;2023-06-10T07:15:56;26.70;99.90
6106;DHT22;3083;51.508;7.966;2023-06-10T07:18:23;26.60;99.90
6106;DHT22;3083;51.508;7.966;2023-06-10T07:20:51;26.70;99.90
6106;DHT22;3083;51.508;7.966;2023-06-10T07:23:18;26.90;99.90
6106;DHT22;3083;51.508;7.966;2023-06-10T07:25:45;27.10;99.90
6106;DHT22;3083;51.508;7.966;2023-06-10T07:28:11;27.30;99.90
6106;DHT22;3083;51.508;7.966;2023-06-10T07:30:38;27.30;99.90
6106;DHT22;3083;51.508;7.966;2023-06-10T07:33:05;27.40;99.90
6106;DHT22;3083;51.508;7.966;2023-06-10T07:35:33;27.40;99.90
6106;DHT22;3083;51.508;7.966;2023-06-10T07:38:01;27.40;99.90
6106;DHT22;3083;51.508;7.966;2023-06-10T07:40:28;27.40;99.90
6106;DHT22;3083;51.508;7.966;2023-06-10T07:42:55;27.40;99.90
6106;DHT22;3083;51.508;7.966;2023-06-10T07:45:22;27.40;99.90
6106;DHT22;3083;51.508;7.966;2023-06-10T07:47:49;27.30;99.90
6106;DHT22;3083;51.508;7.966;2023-06-10T07:50:16;27.10;99.90
6106;DHT22;3083;51.508;7.966;2023-06-10T07:52:43;27.10;99.90
6106;DHT22;3083;51.508;7.966;2023-06-10T07:55:11;27.10;99.90
6106;DHT22;3083;51.508;7.966;2023-06-10T07:57:38;27.20;99.90
6106;DHT22;3083;51.508;7.966;2023-06-10T08:00:06;27.40;99.90
6106;DHT22;3083;51.508;7.966;2023-06-10T08:02:33;27.50;99.90
6106;DHT22;3083;51.508;7.966;2023-06-10T08:05:00;27.70;99.90
6106;DHT22;3083;51.508;7.966;2023-06-10T08:07:27;27.70;99.90
6106;DHT22;3083;51.508;7.966;2023-06-10T08:09:54;27.80;99.90
6106;DHT22;3083;51.508;7.966;2023-06-10T08:12:22;27.90;99.90
6106;DHT22;3083;51.508;7.966;2023-06-10T08:14:49;28.10;99.90
6106;DHT22;3083;51.508;7.966;2023-06-10T08:17:16;28.20;99.90
6106;DHT22;3083;51.508;7.966;2023-06-10T08:19:43;28.30;99.90
6106;DHT22;3083;51.508;7.966;2023-06-10T08:22:10;28.40;99.90
6106;DHT22;3083;51.508;7.966;2023-06-10T08:24:37;28.50;99.90
6106;DHT22;3083;51.508;7.966;2023-06-10T08:27:04;28.60;99.90
6106;DHT22;3083;51.508;7.966;2023-06-10T08:29:33;28.70;99.90
6106;DHT22;3083;51.508;7.966;2023-06-10T08:32:00;28.70;99.90
6106;DHT22;3083;51.508;7.966;2023-06-10T08:34:27;28.60;99.90
6106;DHT22;3083;51.508;7.966;2023-06-10T08:36:54;28.50;99.90
6106;DHT22;3083;51.508;7.966;2023-06-10T08:39:22;28.30;99.90
6106;DHT22;3083;51.508;7.966;2023-06-10T08:42:00;28.30;99.90
6106;DHT22;3083;51.508;7.966;2023-06-10T08:44:32;28.30;99.90
6106;DHT22;3083;51.508;7.966;2023-06-10T08:47:06;28.30;99.90
6106;DHT22;3083;51.508;7.966;2023-06-10T08:49:38;28.30;99.90
6106;DHT22;3083;51.508;7.966;2023-06-10T08:52:06;28.30;99.90
6106;DHT22;3083;51.508;7.966;2023-06-10T08:54:34;28.40;99.90
6106;DHT22;3083;51.508;7.966;2023-06-10T08:57:05;28.40;99.90
6106;DHT22;3083;51.508;7.966;2023-06-10T08:59:33;28.40;99.90
6106;DHT22;3083;51.508;7.966;2023-06-10T09:02:01;28.50;99.90
6106;DHT22;3083;51.508;7.966;2023-06-10T09:04:28;28.70;99.90
6106;DHT22;3083;51.508;7.966;2023-06-10T09:06:56;28.60;99.90
6106;DHT22;3083;51.508;7.966;2023-06-10T09:09:25;28.70;99.90
6106;DHT22;3083;51.508;7.966;2023-06-10T09:11:53;28.60;99.90
6106;DHT22;3083;51.508;7.966;2023-06-10T09:14:20;28.70;99.90
6106;DHT22;3083;51.508;7.966;2023-06-10T09:16:49;28.80;99.90
6106;DHT22;3083;51.508;7.966;2023-06-10T09:19:17;28.90;99.90
6106;DHT22;3083;51.508;7.966;2023-06-10T09:21:44;29.00;99.90
6106;DHT22;3083;51.508;7.966;2023-06-10T09:24:10;29.10;99.90
6106;DHT22;3083;51.508;7.966;2023-06-10T09:26:37;29.30;99.90
6106;DHT22;3083;51.508;7.966;2023-06-10T09:29:05;29.40;99.90
6106;DHT22;3083;51.508;7.966;2023-06-10T09:31:32;29.60;99.90
6106;DHT22;3083;51.508;7.966;2023-06-10T09:34:10;29.60;99.90
6106;DHT22;3083;51.508;7.966;2023-06-10T09:36:38;29.80;99.90
6106;DHT22;3083;51.508;7.966;2023-06-10T09:39:13;30.00;99.90
6106;DHT22;3083;51.508;7.966;2023-06-10T09:41:40;29.80;99.90
6106;DHT22;3083;51.508;7.966;2023-06-10T09:44:11;29.90;99.90
6106;DHT22;3083;51.508;7.966;2023-06-10T09:46:38;30.00;99.90
6106;DHT22;3083;51.508;7.966;2023-06-10T09:49:05;30.10;99.90
6106;DHT22;3083;51.508;7.966;2023-06-10T09:51:33;30.10;99.90
6106;DHT22;3083;51.508;7.966;2023-06-10T09:54:02;30.00;99.90
6106;DHT22;3083;51.508;7.966;2023-06-10T09:56:33;30.20;99.90
6106;DHT22;3083;51.508;7.966;2023-06-10T09:59:01;30.40;99.90
6106;DHT22;3083;51.508;7.966;2023-06-10T10:01:28;30.40;99.90
6106;DHT22;3083;51.508;7.966;2023-06-10T10:03:57;30.40;99.90
6106;DHT22;3083;51.508;7.966;2023-06-10T10:06:24;30.60;99.90
6106;DHT22;3083;51.508;7.966;2023-06-10T10:08:53;30.40;99.90
6106;DHT22;3083;51.508;7.966;2023-06-10T10:11:21;30.40;99.90
6106;DHT22;3083;51.508;7.966;2023-06-10T10:13:49;30.50;99.90
6106;DHT22;3083;51.508;7.966;2023-06-10T10:16:19;30.60;99.90
6106;DHT22;3083;51.508;7.966;2023-06-10T10:18:49;30.40;99.90
6106;DHT22;3083;51.508;7.966;2023-06-10T10:21:21;30.40;99.90
6106;DHT22;3083;51.508;7.966;2023-06-10T10:23:57;30.40;99.90
6106;DHT22;3083;51.508;7.966;2023-06-10T10:26:27;30.30;99.90
6106;DHT22;3083;51.508;7.966;2023-06-10T10:29:01;30.40;99.90
6106;DHT22;3083;51.508;7.966;2023-06-10T10:31:33;30.50;99.90
6106;DHT22;3083;51.508;7.966;2023-06-10T10:34:04;30.70;99.90
6106;DHT22;3083;51.508;7.966;2023-06-10T10:36:33;30.60;99.90
6106;DHT22;3083;51.508;7.966;2023-06-10T10:39:01;30.60;99.90
6106;DHT22;3083;51.508;7.966;2023-06-10T10:41:30;30.60;99.90
6106;DHT22;3083;51.508;7.966;2023-06-10T10:43:58;30.40;99.90
6106;DHT22;3083;51.508;7.966;2023-06-10T10:46:26;30.50;99.90
6106;DHT22;3083;51.508;7.966;2023-06-10T10:48:54;30.50;99.90
6106;DHT22;3083;51.508;7.966;2023-06-10T10:51:23;30.50;99.90
6106;DHT22;3083;51.508;7.966;2023-06-10T10:57:12;30.40;99.90
6106;DHT22;3083;51.508;7.966;2023-06-10T10:59:50;30.30;99.90
6106;DHT22;3083;51.508;7.966;2023-06-10T11:02:18;30.40;99.90
6106;DHT22;3083;51.508;7.966;2023-06-10T11:04:46;30.40;99.90
6106;DHT22;3083;51.508;7.966;2023-06-10T11:07:15;30.40;99.90
6106;DHT22;3083;51.508;7.966;2023-06-10T11:09:58;30.40;99.90
6106;DHT22;3083;51.508;7.966;2023-06-10T11:12:42;30.60;99.90
6106;DHT22;3083;51.508;7.966;2023-06-10T11:15:18;30.70;99.90
6106;DHT22;3083;51.508;7.966;2023-06-10T11:18:06;30.70;99.90
6106;DHT22;3083;51.508;7.966;2023-06-10T11:20:58;30.70;99.90
6106;DHT22;3083;51.508;7.966;2023-06-10T11:23:34;30.90;99.90
6106;DHT22;3083;51.508;7.966;2023-06-10T11:26:21;30.80;99.90
6106;DHT22;3083;51.508;7.966;2023-06-10T11:29:04;30.90;99.90
6106;DHT22;3083;51.508;7.966;2023-06-10T11:31:38;30.90;99.90
6106;DHT22;3083;51.508;7.966;2023-06-10T11:34:06;30.90;99.90
6106;DHT22;3083;51.508;7.966;2023-06-10T11:36:34;30.90;99.90
6106;DHT22;3083;51.508;7.966;2023-06-10T11:39:04;31.00;99.90
6106;DHT22;3083;51.508;7.966;2023-06-10T11:41:31;31.00;99.90
6106;DHT22;3083;51.508;7.966;2023-06-10T11:44:03;31.00;99.90
6106;DHT22;3083;51.508;7.966;2023-06-10T11:46:30;30.90;99.90
6106;DHT22;3083;51.508;7.966;2023-06-10T11:48:58;30.70;99.90
6106;DHT22;3083;51.508;7.966;2023-06-10T11:51:26;30.90;99.90
6106;DHT22;3083;51.508;7.966;2023-06-10T11:53:53;31.00;99.90
6106;DHT22;3083;51.508;7.966;2023-06-10T11:56:20;31.00;99.90
6106;DHT22;3083;51.508;7.966;2023-06-10T11:58:52;31.00;99.90
6106;DHT22;3083;51.508;7.966;2023-06-10T12:01:22;30.90;99.90
6106;DHT22;3083;51.508;7.966;2023-06-10T12:03:57;30.90;99.90
6106;DHT22;3083;51.508;7.966;2023-06-10T12:06:24;31.10;99.90
6106;DHT22;3083;51.508;7.966;2023-06-10T12:08:51;31.10;99.90
6106;DHT22;3083;51.508;7.966;2023-06-10T12:11:18;31.00;99.90
6106;DHT22;3083;51.508;7.966;2023-06-10T12:13:47;31.00;99.90
6106;DHT22;3083;51.508;7.966;2023-06-10T12:16:15;31.00;99.90
6106;DHT22;3083;51.508;7.966;2023-06-10T12:18:45;31.10;99.90
6106;DHT22;3083;51.508;7.966;2023-06-10T12:21:17;31.00;99.90
6106;DHT22;3083;51.508;7.966;2023-06-10T12:24:02;31.00;99.90
6106;DHT22;3083;51.508;7.966;2023-06-10T12:26:40;31.00;99.90
6106;DHT22;3083;51.508;7.966;2023-06-10T12:29:18;31.00;99.90
6106;DHT22;3083;51.508;7.966;2023-06-10T12:32:00;30.90;99.90
6106;DHT22;3083;51.508;7.966;2023-06-10T12:34:34;30.90;99.90
6106;DHT22;3083;51.508;7.966;2023-06-10T12:37:02;30.90;99.90
6106;DHT22;3083;51.508;7.966;2023-06-10T12:39:30;30.80;99.90
6106;DHT22;3083;51.508;7.966;2023-06-10T12:41:57;30.80;99.90
6106;DHT22;3083;51.508;7.966;2023-06-10T12:44:31;30.90;99.90
6106;DHT22;3083;51.508;7.966;2023-06-10T12:46:59;31.00;99.90
6106;DHT22;3083;51.508;7.966;2023-06-10T12:49:26;30.90;99.90
6106;DHT22;3083;51.508;7.966;2023-06-10T12:51:54;30.90;99.90
6106;DHT22;3083;51.508;7.966;2023-06-10T12:54:21;30.90;99.90
6106;DHT22;3083;51.508;7.966;2023-06-10T12:56:49;31.00;99.90
6106;DHT22;3083;51.508;7.966;2023-06-10T12:59:15;30.90;99.90
6106;DHT22;3083;51.508;7.966;2023-06-10T13:01:43;31.00;99.90
6106;DHT22;3083;51.508;7.966;2023-06-10T13:04:10;31.00;99.90
6106;DHT22;3083;51.508;7.966;2023-06-10T13:06:37;30.90;99.90
6106;DHT22;3083;51.508;7.966;2023-06-10T13:09:09;30.70;99.90
6106;DHT22;3083;51.508;7.966;2023-06-10T13:11:36;30.60;99.90
6106;DHT22;3083;51.508;7.966;2023-06-10T13:14:03;30.60;99.90
6106;DHT22;3083;51.508;7.966;2023-06-10T13:16:31;30.60;99.90
6106;DHT22;3083;51.508;7.966;2023-06-10T13:18:58;30.60;99.90
6106;DHT22;3083;51.508;7.966;2023-06-10T13:21:26;30.60;99.90
6106;DHT22;3083;51.508;7.966;2023-06-10T13:23:53;30.60;99.90
6106;DHT22;3083;51.508;7.966;2023-06-10T13:26:21;30.60;99.90
6106;DHT22;3083;51.508;7.966;2023-06-10T13:28:48;30.60;99.90
6106;DHT22;3083;51.508;7.966;2023-06-10T13:31:15;30.70;99.90
6106;DHT22;3083;51.508;7.966;2023-06-10T13:33:42;30.70;99.90
6106;DHT22;3083;51.508;7.966;2023-06-10T13:36:10;30.70;99.90
6106;DHT22;3083;51.508;7.966;2023-06-10T13:38:37;30.60;99.90
6106;DHT22;3083;51.508;7.966;2023-06-10T13:41:04;30.40;99.90
6106;DHT22;3083;51.508;7.966;2023-06-10T13:43:33;30.40;99.90
6106;DHT22;3083;51.508;7.966;2023-06-10T13:46:00;30.40;99.90
6106;DHT22;3083;51.508;7.966;2023-06-10T13:48:27;30.50;99.90
6106;DHT22;3083;51.508;7.966;2023-06-10T13:50:54;30.40;99.90
6106;DHT22;3083;51.508;7.966;2023-06-10T13:53:21;30.30;99.90
6106;DHT22;3083;51.508;7.966;2023-06-10T13:55:48;30.30;99.90
6106;DHT22;3083;51.508;7.966;2023-06-10T13:58:15;30.40;99.90
6106;DHT22;3083;51.508;7.966;2023-06-10T14:00:43;30.30;99.90
6106;DHT22;3083;51.508;7.966;2023-06-10T14:03:10;30.40;99.90
6106;DHT22;3083;51.508;7.966;2023-06-10T14:05:37;30.40;99.90
6106;DHT22;3083;51.508;7.966;2023-06-10T14:08:04;30.50;99.90
6106;DHT22;3083;51.508;7.966;2023-06-10T14:10:31;30.50;99.90
6106;DHT22;3083;51.508;7.966;2023-06-10T14:12:58;30.60;99.90
6106;DHT22;3083;51.508;7.966;2023-06-10T14:15:25;30.60;99.90
6106;DHT22;3083;51.508;7.966;2023-06-10T14:17:54;30.40;99.90
6106;DHT22;3083;51.508;7.966;2023-06-10T14:20:20;30.30;99.90
6106;DHT22;3083;51.508;7.966;2023-06-10T14:22:47;30.20;99.90
6106;DHT22;3083;51.508;7.966;2023-06-10T14:25:14;30.20;99.90
6106;DHT22;3083;51.508;7.966;2023-06-10T14:27:41;30.20;99.90
6106;DHT22;3083;51.508;7.966;2023-06-10T14:30:09;30.30;99.90
6106;DHT22;3083;51.508;7.966;2023-06-10T14:32:36;30.20;99.90
6106;DHT22;3083;51.508;7.966;2023-06-10T14:35:05;30.20;99.90
6106;DHT22;3083;51.508;7.966;2023-06-10T14:37:32;30.20;99.90
6106;DHT22;3083;51.508;7.966;2023-06-10T14:39:59;30.20;99.90
6106;DHT22;3083;51.508;7.966;2023-06-10T14:42:25;30.20;99.90
6106;DHT22;3083;51.508;7.966;2023-06-10T14:44:53;30.10;99.90
6106;DHT22;3083;51.508;7.966;2023-06-10T14:47:20;30.00;99.90
6106;DHT22;3083;51.508;7.966;2023-06-10T14:49:47;29.80;99.90
6106;DHT22;3083;51.508;7.966;2023-06-10T14:52:15;29.70;99.90
6106;DHT22;3083;51.508;7.966;2023-06-10T14:54:41;29.60;99.90
6106;DHT22;3083;51.508;7.966;2023-06-10T14:57:08;29.60;99.90
6106;DHT22;3083;51.508;7.966;2023-06-10T14:59:36;29.60;99.90
6106;DHT22;3083;51.508;7.966;2023-06-10T15:02:03;29.60;99.90
6106;DHT22;3083;51.508;7.966;2023-06-10T15:04:30;29.60;99.90
6106;DHT22;3083;51.508;7.966;2023-06-10T15:06:56;29.70;99.90
6106;DHT22;3083;51.508;7.966;2023-06-10T15:09:25;29.70;99.90
6106;DHT22;3083;51.508;7.966;2023-06-10T15:11:51;29.60;99.90
6106;DHT22;3083;51.508;7.966;2023-06-10T15:14:18;29.60;99.90
6106;DHT22;3083;51.508;7.966;2023-06-10T15:16:45;29.60;99.90
6106;DHT22;3083;51.508;7.966;2023-06-10T15:19:12;29.50;99.90
6106;DHT22;3083;51.508;7.966;2023-06-10T15:21:39;29.50;99.90
6106;DHT22;3083;51.508;7.966;2023-06-10T15:24:07;29.50;99.90
6106;DHT22;3083;51.508;7.966;2023-06-10T15:26:35;29.40;99.90
6106;DHT22;3083;51.508;7.966;2023-06-10T15:29:02;29.40;99.90
6106;DHT22;3083;51.508;7.966;2023-06-10T15:31:30;29.40;99.90
6106;DHT22;3083;51.508;7.966;2023-06-10T15:33:57;29.40;99.90
6106;DHT22;3083;51.508;7.966;2023-06-10T15:36:25;29.30;99.90
6106;DHT22;3083;51.508;7.966;2023-06-10T15:38:52;29.40;99.90
6106;DHT22;3083;51.508;7.966;2023-06-10T15:41:19;29.30;99.90
6106;DHT22;3083;51.508;7.966;2023-06-10T15:43:47;29.20;99.90
6106;DHT22;3083;51.508;7.966;2023-06-10T15:46:14;29.10;99.90
6106;DHT22;3083;51.508;7.966;2023-06-10T15:48:41;29.00;99.90
6106;DHT22;3083;51.508;7.966;2023-06-10T15:51:08;29.00;99.90
6106;DHT22;3083;51.508;7.966;2023-06-10T15:53:34;29.00;99.90
6106;DHT22;3083;51.508;7.966;2023-06-10T15:56:02;29.00;99.90
6106;DHT22;3083;51.508;7.966;2023-06-10T15:58:29;28.90;99.90
6106;DHT22;3083;51.508;7.966;2023-06-10T16:00:57;28.90;99.90
6106;DHT22;3083;51.508;7.966;2023-06-10T16:03:24;29.00;99.90
6106;DHT22;3083;51.508;7.966;2023-06-10T16:05:51;28.90;99.90
6106;DHT22;3083;51.508;7.966;2023-06-10T16:08:18;28.90;99.90
6106;DHT22;3083;51.508;7.966;2023-06-10T16:10:46;28.90;99.90